createdAt,value
2018-09-30T00:02:25.754Z,6.50
2018-09-30T00:04:54.193Z,6.50
2018-09-30T00:07:22.670Z,6.40
2018-09-30T00:12:44.458Z,6.40
2018-09-30T00:15:12.919Z,6.40
2018-09-30T00:17:41.333Z,6.40
2018-09-30T00:26:22.897Z,6.40
2018-09-30T00:28:51.395Z,6.40
2018-09-30T00:31:19.733Z,6.40
2018-09-30T00:33:53.532Z,6.40
2018-09-30T00:36:22.158Z,6.50
2018-09-30T00:38:50.561Z,6.40
2018-09-30T00:41:19.002Z,6.50
2018-09-30T00:43:47.417Z,6.50
2018-09-30T00:46:16.028Z,6.50
2018-09-30T00:48:44.377Z,6.60
2018-09-30T00:51:12.824Z,6.60
2018-09-30T00:53:41.190Z,6.70
2018-09-30T00:56:09.601Z,6.70
2018-09-30T00:58:38.045Z,6.70
2018-09-30T01:01:06.397Z,6.80
2018-09-30T01:03:34.749Z,6.80
2018-09-30T01:06:03.104Z,6.90
2018-09-30T01:08:31.561Z,6.90
2018-09-30T01:10:59.916Z,6.90
2018-09-30T01:13:28.248Z,6.90
2018-09-30T01:15:56.574Z,6.90
2018-09-30T01:18:24.948Z,7.00
2018-09-30T01:20:53.276Z,7.00
2018-09-30T01:23:21.609Z,7.00
2018-09-30T01:25:52.801Z,7.00
2018-09-30T01:28:21.132Z,7.00
2018-09-30T01:30:49.455Z,7.00
2018-09-30T01:33:17.768Z,7.00
2018-09-30T01:35:46.258Z,7.10
2018-09-30T01:38:14.625Z,7.10
2018-09-30T01:40:42.951Z,7.10
2018-09-30T01:43:11.256Z,7.10
2018-09-30T01:45:39.652Z,7.10
2018-09-30T01:48:07.996Z,7.10
2018-09-30T01:50:36.441Z,7.10
2018-09-30T01:53:04.786Z,7.10
2018-09-30T01:55:33.101Z,7.00
2018-09-30T01:58:01.416Z,7.00
2018-09-30T02:00:29.734Z,7.10
2018-09-30T02:02:58.040Z,7.00
2018-09-30T02:05:26.533Z,7.00
2018-09-30T02:07:54.844Z,7.00
2018-09-30T02:10:23.223Z,7.00
2018-09-30T02:12:51.538Z,7.00
2018-09-30T02:15:19.949Z,7.00
2018-09-30T02:17:48.266Z,7.00
2018-09-30T02:20:16.743Z,7.00
2018-09-30T02:22:45.099Z,7.00
2018-09-30T02:25:13.400Z,7.00
2018-09-30T02:27:41.772Z,7.00
2018-09-30T02:30:10.146Z,7.00
2018-09-30T02:32:38.481Z,7.00
2018-09-30T02:35:06.852Z,7.00
2018-09-30T02:37:35.255Z,6.90
2018-09-30T02:40:03.849Z,6.90
2018-09-30T02:42:32.190Z,6.90
2018-09-30T02:45:00.521Z,6.90
2018-09-30T02:47:28.914Z,6.90
2018-09-30T02:49:57.267Z,6.90
2018-09-30T02:52:25.630Z,6.90
2018-09-30T02:54:53.906Z,6.90
2018-09-30T02:57:22.173Z,6.80
2018-09-30T02:59:50.409Z,6.80
2018-09-30T03:02:18.645Z,6.80
2018-09-30T03:04:46.962Z,6.80
2018-09-30T03:07:20.506Z,6.80
2018-09-30T03:09:48.789Z,6.80
2018-09-30T03:12:17.068Z,6.80
2018-09-30T03:14:45.345Z,6.80
2018-09-30T03:17:13.691Z,6.80
2018-09-30T03:19:41.950Z,6.70
2018-09-30T03:22:10.197Z,6.70
2018-09-30T03:24:38.469Z,6.70
2018-09-30T03:27:06.721Z,6.70
2018-09-30T03:29:34.997Z,6.70
2018-09-30T03:32:03.235Z,6.70
2018-09-30T03:34:31.477Z,6.70
2018-09-30T03:36:59.762Z,6.70
2018-09-30T03:39:28.020Z,6.60
2018-09-30T03:41:56.293Z,6.60
2018-09-30T03:44:24.582Z,6.60
2018-09-30T03:46:52.861Z,6.60
2018-09-30T03:49:21.121Z,6.60
2018-09-30T03:51:49.396Z,6.60
2018-09-30T03:54:17.706Z,6.60
2018-09-30T03:56:46.018Z,6.60
2018-09-30T03:59:14.215Z,6.60
2018-09-30T04:01:42.477Z,6.60
2018-09-30T04:04:10.753Z,6.60
2018-09-30T04:06:39.000Z,6.60
2018-09-30T04:09:08.436Z,6.60
2018-09-30T04:11:36.906Z,6.60
2018-09-30T04:14:05.181Z,6.60
2018-09-30T04:16:33.488Z,6.60
2018-09-30T04:19:01.767Z,6.50
2018-09-30T04:21:30.037Z,6.50
2018-09-30T04:24:05.921Z,6.50
2018-09-30T04:26:34.179Z,6.50
2018-09-30T04:29:02.480Z,6.50
2018-09-30T04:31:30.805Z,6.50
2018-09-30T04:33:59.209Z,6.40
2018-09-30T04:36:27.473Z,6.50
2018-09-30T04:38:55.730Z,6.40
2018-09-30T04:41:24.019Z,6.40
2018-09-30T04:43:52.620Z,6.40
2018-09-30T04:46:20.953Z,6.40
2018-09-30T04:48:49.196Z,6.40
2018-09-30T04:51:17.572Z,6.40
2018-09-30T04:53:45.849Z,6.40
2018-09-30T04:56:14.128Z,6.40
2018-09-30T04:58:42.408Z,6.40
2018-09-30T05:01:10.769Z,6.40
2018-09-30T05:03:39.043Z,6.40
2018-09-30T05:06:07.459Z,6.40
2018-09-30T05:08:35.693Z,6.40
2018-09-30T05:11:04.105Z,6.40
2018-09-30T05:13:32.353Z,6.40
2018-09-30T05:16:00.658Z,6.40
2018-09-30T05:18:28.937Z,6.40
2018-09-30T05:20:57.177Z,6.40
2018-09-30T05:23:25.472Z,6.40
2018-09-30T05:25:53.738Z,6.50
2018-09-30T05:28:22.014Z,6.50
2018-09-30T05:30:50.288Z,6.50
2018-09-30T05:33:18.564Z,6.50
2018-09-30T05:35:46.847Z,6.50
2018-09-30T05:38:15.110Z,6.50
2018-09-30T05:40:43.515Z,6.50
2018-09-30T05:43:11.769Z,6.50
2018-09-30T05:45:40.021Z,6.50
2018-09-30T05:48:08.332Z,6.50
2018-09-30T05:50:36.637Z,6.50
2018-09-30T05:53:05.160Z,6.50
2018-09-30T05:55:33.430Z,6.60
2018-09-30T05:58:01.682Z,6.60
2018-09-30T06:00:29.921Z,6.60
2018-09-30T06:02:58.205Z,6.60
2018-09-30T06:05:26.485Z,6.60
2018-09-30T06:07:54.729Z,6.60
2018-09-30T06:10:22.972Z,6.70
2018-09-30T06:12:51.210Z,6.70
2018-09-30T06:15:19.460Z,6.70
2018-09-30T06:17:47.764Z,6.70
2018-09-30T06:20:16.043Z,6.70
2018-09-30T06:22:44.385Z,6.80
2018-09-30T06:25:12.682Z,6.80
2018-09-30T06:27:40.954Z,6.80
2018-09-30T06:30:09.237Z,6.90
2018-09-30T06:32:37.549Z,6.90
2018-09-30T06:35:05.965Z,6.90
2018-09-30T06:37:34.303Z,7.00
2018-09-30T06:40:02.579Z,7.00
2018-09-30T06:42:30.823Z,7.00
2018-09-30T06:44:59.241Z,7.10
2018-09-30T06:47:27.597Z,7.20
2018-09-30T06:49:55.838Z,7.20
2018-09-30T06:52:24.157Z,7.30
2018-09-30T06:54:52.442Z,7.30
2018-09-30T06:57:20.706Z,7.40
2018-09-30T06:59:48.982Z,7.40
2018-09-30T07:02:17.277Z,7.50
2018-09-30T07:04:45.531Z,7.50
2018-09-30T07:07:13.789Z,7.50
2018-09-30T07:09:42.090Z,7.50
2018-09-30T07:12:10.322Z,7.60
2018-09-30T07:14:38.588Z,7.70
2018-09-30T07:17:06.865Z,7.70
2018-09-30T07:19:35.122Z,7.80
2018-09-30T07:22:03.424Z,7.80
2018-09-30T07:24:31.817Z,7.90
2018-09-30T07:27:00.073Z,8.20
2018-09-30T07:29:28.381Z,8.50
2018-09-30T07:31:56.625Z,8.80
2018-09-30T07:34:24.905Z,9.00
2018-09-30T07:36:53.184Z,9.10
2018-09-30T07:39:21.516Z,9.20
2018-09-30T07:41:49.708Z,9.30
2018-09-30T07:44:17.967Z,9.30
2018-09-30T07:46:46.274Z,9.40
2018-09-30T07:49:14.510Z,9.40
2018-09-30T07:51:42.789Z,9.50
2018-09-30T07:54:11.065Z,9.70
2018-09-30T07:56:39.343Z,9.90
2018-09-30T07:59:07.884Z,10.20
2018-09-30T08:01:36.161Z,10.60
2018-09-30T08:04:04.448Z,11.00
2018-09-30T08:06:32.808Z,11.20
2018-09-30T08:09:01.005Z,11.40
2018-09-30T08:11:29.269Z,11.50
2018-09-30T08:13:57.533Z,11.60
2018-09-30T08:16:25.795Z,11.60
2018-09-30T08:18:54.037Z,11.70
2018-09-30T08:21:22.363Z,11.70
2018-09-30T08:23:50.662Z,11.80
2018-09-30T08:26:18.921Z,12.00
2018-09-30T08:28:47.192Z,12.20
2018-09-30T08:31:15.416Z,12.30
2018-09-30T08:33:43.748Z,12.50
2018-09-30T08:36:11.985Z,12.60
2018-09-30T08:38:41.373Z,12.60
2018-09-30T08:41:10.663Z,12.60
2018-09-30T08:43:40.188Z,12.60
2018-09-30T08:46:08.664Z,12.60
2018-09-30T08:48:36.939Z,12.60
2018-09-30T08:51:05.213Z,12.60
2018-09-30T08:53:33.482Z,12.60
2018-09-30T08:56:01.880Z,12.60
2018-09-30T08:58:30.551Z,12.50
2018-09-30T09:00:58.832Z,12.50
2018-09-30T09:03:27.220Z,12.50
2018-09-30T09:05:55.464Z,12.50
2018-09-30T09:08:23.829Z,12.50
2018-09-30T09:10:52.154Z,12.50
2018-09-30T09:13:20.488Z,12.50
2018-09-30T09:15:48.739Z,12.60
2018-09-30T09:18:17.076Z,12.60
2018-09-30T09:20:45.425Z,12.70
2018-09-30T09:23:13.749Z,12.70
2018-09-30T09:25:42.306Z,12.90
2018-09-30T09:28:11.161Z,12.90
2018-09-30T09:30:39.401Z,13.10
2018-09-30T09:33:07.744Z,13.10
2018-09-30T09:35:35.957Z,13.30
2018-09-30T09:38:04.245Z,13.40
2018-09-30T09:40:32.486Z,13.40
2018-09-30T09:43:00.760Z,13.50
2018-09-30T09:45:29.094Z,13.70
2018-09-30T09:47:57.352Z,13.90
2018-09-30T09:50:25.622Z,14.00
2018-09-30T09:52:53.893Z,14.10
2018-09-30T09:55:22.164Z,14.20
2018-09-30T09:57:50.441Z,14.30
2018-09-30T10:00:24.111Z,14.30
2018-09-30T10:02:52.388Z,14.40
2018-09-30T10:05:20.709Z,14.50
2018-09-30T10:07:48.983Z,14.60
2018-09-30T10:10:17.246Z,14.70
2018-09-30T10:12:45.565Z,14.90
2018-09-30T10:15:13.893Z,15.10
2018-09-30T10:17:42.223Z,15.40
2018-09-30T10:20:10.525Z,15.80
2018-09-30T10:22:38.837Z,16.00
2018-09-30T10:25:07.207Z,16.20
2018-09-30T10:27:35.530Z,16.50
2018-09-30T10:30:04.114Z,16.80
2018-09-30T10:32:32.353Z,17.10
2018-09-30T10:35:00.601Z,17.30
2018-09-30T10:37:28.876Z,17.60
2018-09-30T10:39:57.141Z,17.90
2018-09-30T10:42:25.459Z,18.20
2018-09-30T10:44:53.813Z,18.30
2018-09-30T10:47:22.089Z,18.30
2018-09-30T10:49:50.381Z,18.30
2018-09-30T10:52:18.636Z,18.40
2018-09-30T10:54:46.945Z,18.80
2018-09-30T10:57:15.206Z,19.60
2018-09-30T10:59:43.489Z,20.20
2018-09-30T11:02:11.761Z,20.40
2018-09-30T11:04:40.025Z,20.30
2018-09-30T11:07:08.332Z,20.30
2018-09-30T11:09:36.797Z,20.40
2018-09-30T11:12:05.021Z,20.70
2018-09-30T11:14:33.297Z,21.10
2018-09-30T11:17:01.580Z,21.50
2018-09-30T11:19:29.853Z,21.80
2018-09-30T11:21:58.144Z,22.10
2018-09-30T11:24:26.412Z,22.40
2018-09-30T11:26:54.650Z,22.70
2018-09-30T11:29:22.964Z,23.10
2018-09-30T11:31:51.382Z,23.60
2018-09-30T11:34:19.565Z,23.90
2018-09-30T11:36:47.908Z,24.20
2018-09-30T11:39:16.201Z,24.70
2018-09-30T11:41:44.494Z,25.10
2018-09-30T11:44:13.306Z,25.50
2018-09-30T11:46:41.861Z,25.70
2018-09-30T11:49:10.517Z,25.90
2018-09-30T11:51:38.809Z,26.00
2018-09-30T11:54:07.130Z,26.20
2018-09-30T11:56:35.488Z,26.20
2018-09-30T11:59:03.969Z,26.20
2018-09-30T12:01:32.391Z,26.50
2018-09-30T12:04:00.925Z,26.60
2018-09-30T12:06:29.259Z,26.60
2018-09-30T12:08:57.541Z,26.50
2018-09-30T12:11:25.837Z,26.40
2018-09-30T12:13:54.206Z,26.50
2018-09-30T12:16:22.730Z,26.70
2018-09-30T12:18:51.121Z,27.10
2018-09-30T12:21:19.301Z,27.30
2018-09-30T12:23:47.578Z,27.60
2018-09-30T12:26:15.993Z,27.80
2018-09-30T12:28:44.312Z,27.50
2018-09-30T12:31:12.646Z,26.80
2018-09-30T12:33:40.883Z,26.00
2018-09-30T12:36:09.149Z,25.50
2018-09-30T12:38:37.547Z,25.10
2018-09-30T12:41:05.827Z,24.60
2018-09-30T12:43:34.132Z,24.40
2018-09-30T12:46:02.394Z,24.70
2018-09-30T12:48:30.751Z,25.10
2018-09-30T12:50:59.104Z,25.40
2018-09-30T12:53:27.356Z,25.30
2018-09-30T12:55:55.666Z,25.50
2018-09-30T12:58:23.986Z,25.40
2018-09-30T13:00:53.315Z,25.50
2018-09-30T13:03:21.817Z,25.80
2018-09-30T13:05:50.131Z,25.60
2018-09-30T13:08:18.484Z,25.10
2018-09-30T13:10:46.802Z,24.50
2018-09-30T13:13:15.066Z,23.90
2018-09-30T13:15:43.556Z,23.20
2018-09-30T13:18:11.790Z,22.60
2018-09-30T13:20:40.194Z,22.10
2018-09-30T13:23:08.358Z,21.60
2018-09-30T13:25:36.602Z,21.20
2018-09-30T13:28:04.944Z,21.20
2018-09-30T13:30:33.221Z,21.50
2018-09-30T13:33:01.876Z,22.00
2018-09-30T13:35:30.113Z,22.40
2018-09-30T13:37:58.410Z,22.60
2018-09-30T13:40:27.200Z,22.70
2018-09-30T13:42:55.441Z,22.60
2018-09-30T13:45:23.900Z,22.50
2018-09-30T13:47:52.176Z,22.20
2018-09-30T13:50:20.436Z,22.00
2018-09-30T13:52:48.734Z,22.00
2018-09-30T13:55:17.149Z,21.70
2018-09-30T13:57:45.425Z,21.50
2018-09-30T14:00:13.769Z,21.10
2018-09-30T14:02:42.126Z,20.70
2018-09-30T14:05:10.437Z,20.40
2018-09-30T14:07:38.799Z,20.10
2018-09-30T14:10:07.165Z,19.80
2018-09-30T14:12:35.509Z,19.50
2018-09-30T14:15:04.005Z,19.20
2018-09-30T14:17:32.347Z,19.10
2018-09-30T14:20:00.701Z,18.90
2018-09-30T14:22:28.945Z,18.70
2018-09-30T14:24:57.356Z,18.50
2018-09-30T14:27:25.941Z,18.50
2018-09-30T14:29:53.967Z,18.40
2018-09-30T14:32:22.388Z,18.40
2018-09-30T14:34:50.781Z,18.40
2018-09-30T14:37:19.077Z,18.30
2018-09-30T14:39:47.537Z,18.20
2018-09-30T14:42:15.822Z,18.10
2018-09-30T14:44:44.136Z,18.10
2018-09-30T14:47:12.413Z,18.00
2018-09-30T14:49:40.734Z,18.00
2018-09-30T14:52:09.189Z,17.90
2018-09-30T14:54:37.468Z,17.90
2018-09-30T14:57:05.822Z,17.80
2018-09-30T14:59:34.182Z,17.70
2018-09-30T15:02:02.493Z,17.60
2018-09-30T15:04:30.980Z,17.50
2018-09-30T15:06:59.423Z,17.40
2018-09-30T15:09:27.766Z,17.30
2018-09-30T15:11:56.099Z,17.20
2018-09-30T15:14:24.360Z,17.20
2018-09-30T15:16:52.825Z,17.20
2018-09-30T15:19:21.089Z,17.10
2018-09-30T15:21:49.394Z,17.10
2018-09-30T15:24:17.796Z,17.10
2018-09-30T15:26:46.034Z,17.00
2018-09-30T15:29:14.427Z,17.00
2018-09-30T15:31:42.910Z,16.90
2018-09-30T15:34:11.185Z,16.90
2018-09-30T15:36:39.514Z,16.90
2018-09-30T15:39:10.629Z,16.80
2018-09-30T15:41:39.266Z,16.80
2018-09-30T15:44:07.633Z,16.70
2018-09-30T15:46:35.997Z,16.60
2018-09-30T15:49:04.350Z,16.50
2018-09-30T15:51:32.653Z,16.50
2018-09-30T15:54:00.932Z,16.50
2018-09-30T15:56:29.262Z,16.40
2018-09-30T15:58:57.729Z,16.40
2018-09-30T16:01:26.025Z,16.30
2018-09-30T16:03:54.649Z,16.30
2018-09-30T16:06:22.902Z,16.20
2018-09-30T16:08:51.240Z,16.20
2018-09-30T16:11:20.315Z,16.20
2018-09-30T16:13:48.565Z,16.10
2018-09-30T16:16:16.906Z,16.10
2018-09-30T16:18:45.219Z,16.00
2018-09-30T16:21:13.605Z,16.00
2018-09-30T16:23:41.909Z,15.90
2018-09-30T16:26:10.193Z,15.90
2018-09-30T16:28:38.591Z,15.80
2018-09-30T16:31:06.885Z,15.80
2018-09-30T16:33:35.160Z,15.70
2018-09-30T16:36:03.453Z,15.70
2018-09-30T16:38:31.809Z,15.60
2018-09-30T16:41:00.201Z,15.60
2018-09-30T16:43:28.527Z,15.50
2018-09-30T16:45:56.784Z,15.50
2018-09-30T16:48:25.131Z,15.40
2018-09-30T16:50:53.405Z,15.40
2018-09-30T16:53:21.774Z,15.30
2018-09-30T16:55:50.117Z,15.30
2018-09-30T16:58:18.370Z,15.20
2018-09-30T17:00:46.820Z,15.10
2018-09-30T17:03:15.113Z,15.10
2018-09-30T17:05:43.423Z,15.00
2018-09-30T17:08:11.788Z,14.90
2018-09-30T17:10:40.081Z,14.80
2018-09-30T17:13:08.357Z,14.70
2018-09-30T17:15:36.818Z,14.60
2018-09-30T17:18:05.097Z,14.60
2018-09-30T17:20:33.478Z,14.50
2018-09-30T17:23:01.741Z,14.40
2018-09-30T17:25:30.100Z,14.30
2018-09-30T17:27:58.715Z,14.20
2018-09-30T17:30:27.017Z,14.10
2018-09-30T17:32:55.293Z,14.10
2018-09-30T17:35:23.747Z,14.00
2018-09-30T17:37:52.109Z,13.90
2018-09-30T17:40:20.378Z,13.80
2018-09-30T17:42:48.632Z,13.80
2018-09-30T17:45:16.912Z,13.70
2018-09-30T17:47:45.288Z,13.70
2018-09-30T17:50:13.610Z,13.60
2018-09-30T17:52:41.917Z,13.60
2018-09-30T17:55:10.448Z,13.50
2018-09-30T17:57:38.716Z,13.50
2018-09-30T18:00:06.971Z,13.40
2018-09-30T18:02:35.344Z,13.40
2018-09-30T18:05:03.681Z,13.40
2018-09-30T18:07:32.081Z,13.30
2018-09-30T18:10:00.494Z,13.30
2018-09-30T18:12:28.925Z,13.30
2018-09-30T18:14:57.230Z,13.30
2018-09-30T18:17:25.679Z,13.20
2018-09-30T18:19:53.985Z,13.20
2018-09-30T18:22:22.237Z,13.20
2018-09-30T18:24:50.489Z,13.20
2018-09-30T18:27:18.755Z,13.20
2018-09-30T18:29:47.069Z,13.20
2018-09-30T18:32:15.369Z,13.10
2018-09-30T18:34:43.669Z,13.10
2018-09-30T18:37:11.969Z,13.00
2018-09-30T18:39:40.276Z,13.00
2018-09-30T18:42:08.729Z,12.90
2018-09-30T18:44:37.008Z,12.90
2018-09-30T18:47:05.328Z,12.90
2018-09-30T18:49:33.628Z,12.80
2018-09-30T18:52:01.899Z,12.70
2018-09-30T18:54:30.159Z,12.70
2018-09-30T18:56:58.556Z,12.70
2018-09-30T18:59:26.968Z,12.60
2018-09-30T19:01:55.243Z,12.60
2018-09-30T19:04:23.577Z,12.50
2018-09-30T19:06:51.885Z,12.50
2018-09-30T19:09:20.161Z,12.50
2018-09-30T19:11:48.514Z,12.50
2018-09-30T19:14:16.748Z,12.40
2018-09-30T19:16:45.265Z,12.40
2018-09-30T19:19:13.662Z,12.30
2018-09-30T19:21:41.931Z,12.30
2018-09-30T19:24:10.165Z,12.30
2018-09-30T19:26:38.571Z,12.20
2018-09-30T19:29:06.846Z,12.20
2018-09-30T19:31:35.262Z,12.20
2018-09-30T19:34:03.555Z,12.10
2018-09-30T19:36:31.841Z,12.10
2018-09-30T19:39:00.245Z,12.00
2018-09-30T19:41:28.740Z,12.00
2018-09-30T19:43:57.189Z,11.90
2018-09-30T19:46:25.726Z,11.80
2018-09-30T19:48:54.094Z,11.80
2018-09-30T19:51:22.582Z,11.80
2018-09-30T19:53:51.047Z,11.70
2018-09-30T19:56:19.468Z,11.70
2018-09-30T19:58:47.773Z,11.70
2018-09-30T20:01:16.058Z,11.60
2018-09-30T20:03:44.592Z,11.60
2018-09-30T20:06:12.848Z,11.60
2018-09-30T20:08:41.153Z,11.50
2018-09-30T20:11:09.470Z,11.50
2018-09-30T20:13:37.904Z,11.40
2018-09-30T20:16:06.173Z,11.40
2018-09-30T20:18:34.581Z,11.40
2018-09-30T20:21:03.238Z,11.30
2018-09-30T20:23:31.532Z,11.30
2018-09-30T20:25:59.874Z,11.30
2018-09-30T20:28:28.202Z,11.30
2018-09-30T20:30:57.405Z,11.30
2018-09-30T20:33:25.647Z,11.30
2018-09-30T20:35:54.136Z,11.20
2018-09-30T20:38:22.413Z,11.20
2018-09-30T20:40:50.825Z,11.20
2018-09-30T20:43:19.252Z,11.10
2018-09-30T20:45:47.481Z,11.10
2018-09-30T20:48:15.733Z,11.10
2018-09-30T20:50:44.257Z,11.00
2018-09-30T20:53:12.693Z,11.00
2018-09-30T20:55:41.117Z,11.00
2018-09-30T20:58:09.349Z,10.90
2018-09-30T21:00:37.736Z,10.90
2018-09-30T21:03:06.025Z,10.90
2018-09-30T21:06:48.456Z,10.90
2018-09-30T21:09:18.105Z,10.80
2018-09-30T21:11:46.367Z,10.80
2018-09-30T21:14:14.869Z,10.70
2018-09-30T21:16:43.161Z,10.70
2018-09-30T21:19:11.433Z,10.70
2018-09-30T21:21:39.866Z,10.70
2018-09-30T21:24:08.160Z,10.70
2018-09-30T21:26:36.573Z,10.80
2018-09-30T21:29:04.848Z,10.80
2018-09-30T21:31:33.125Z,10.70
2018-09-30T21:34:01.442Z,10.70
2018-09-30T21:36:29.693Z,10.70
2018-09-30T21:38:57.957Z,10.70
2018-09-30T21:41:26.313Z,10.60
2018-09-30T21:43:54.562Z,10.60
2018-09-30T21:46:22.913Z,10.60
2018-09-30T21:48:51.246Z,10.50
2018-09-30T21:51:19.545Z,10.50
2018-09-30T21:53:47.850Z,10.50
2018-09-30T21:56:16.216Z,10.50
2018-09-30T21:58:44.476Z,10.40
2018-09-30T22:01:12.786Z,10.40
2018-09-30T22:03:41.071Z,10.40
2018-09-30T22:06:09.349Z,10.40
2018-09-30T22:08:37.881Z,10.30
2018-09-30T22:11:06.238Z,10.30
2018-09-30T22:13:34.545Z,10.30
2018-09-30T22:16:02.801Z,10.30
2018-09-30T22:18:31.101Z,10.30
2018-09-30T22:20:59.421Z,10.30
2018-09-30T22:23:28.245Z,10.30
2018-09-30T22:25:56.645Z,10.30
2018-09-30T22:28:24.953Z,10.30
2018-09-30T22:30:53.205Z,10.30
2018-09-30T22:33:21.489Z,10.30
2018-09-30T22:35:50.170Z,10.30
2018-09-30T22:38:18.642Z,10.40
2018-09-30T22:40:47.109Z,10.40
2018-09-30T22:43:15.385Z,10.40
2018-09-30T22:45:43.886Z,10.40
2018-09-30T22:48:12.165Z,10.50
2018-09-30T22:50:40.441Z,10.50
2018-09-30T22:53:08.780Z,10.60
2018-09-30T22:55:37.028Z,10.60
2018-09-30T22:58:05.269Z,10.60
2018-09-30T23:00:33.545Z,10.70
2018-09-30T23:03:01.821Z,10.70
2018-09-30T23:05:30.073Z,10.80
2018-09-30T23:07:58.348Z,10.80
2018-09-30T23:10:26.649Z,10.80
2018-09-30T23:12:54.891Z,10.80
2018-09-30T23:15:23.169Z,10.90
2018-09-30T23:17:51.445Z,10.90
2018-09-30T23:20:19.769Z,10.90
2018-09-30T23:22:48.030Z,11.00
2018-09-30T23:25:16.286Z,11.00
2018-09-30T23:27:44.713Z,11.00
2018-09-30T23:30:13.144Z,11.00
2018-09-30T23:32:41.515Z,11.00
2018-09-30T23:35:09.805Z,11.10
2018-09-30T23:37:38.061Z,11.10
2018-09-30T23:40:06.550Z,11.10
2018-09-30T23:42:34.961Z,11.10
2018-09-30T23:45:03.338Z,11.10
2018-09-30T23:47:31.744Z,11.20
2018-09-30T23:50:00.025Z,11.20
2018-09-30T23:52:28.316Z,11.20
2018-09-30T23:54:56.600Z,11.30
2018-09-30T23:57:24.950Z,11.30
2018-09-30T23:59:53.230Z,11.30
